createdAt,value
2022-10-21T00:00:33.056Z,12.20
2022-10-21T00:03:26.545Z,12.30
2022-10-21T00:05:58.453Z,12.40
2022-10-21T00:08:30.198Z,11.70
2022-10-21T00:11:04.554Z,12.90
2022-10-21T00:13:40.383Z,11.80
2022-10-21T00:16:14.591Z,12.60
2022-10-21T00:18:47.826Z,12.70
2022-10-21T00:21:20.980Z,12.50
2022-10-21T00:23:54.296Z,12.20
2022-10-21T00:26:25.863Z,12.40
2022-10-21T00:29:00.244Z,12.50
2022-10-21T00:31:32.003Z,12.20
2022-10-21T00:34:05.215Z,13.00
2022-10-21T00:36:36.877Z,12.50
2022-10-21T00:39:10.227Z,12.90
2022-10-21T00:41:41.896Z,13.30
2022-10-21T00:44:17.530Z,13.00
2022-10-21T00:46:53.250Z,12.40
2022-10-21T00:49:30.546Z,11.90
2022-10-21T00:52:07.475Z,12.80
2022-10-21T00:54:41.493Z,14.50
2022-10-21T00:57:13.943Z,13.70
2022-10-21T00:59:52.970Z,12.90
2022-10-21T01:02:24.713Z,13.00
2022-10-21T01:05:02.084Z,12.60
2022-10-21T01:07:36.387Z,13.20
2022-10-21T01:10:17.296Z,12.00
2022-10-21T01:12:59.415Z,12.30
2022-10-21T01:15:42.894Z,12.20
2022-10-21T01:18:23.477Z,12.40
2022-10-21T01:21:18.939Z,11.90
2022-10-21T01:24:24.988Z,12.70
2022-10-21T01:27:21.030Z,12.50
2022-10-21T01:30:13.720Z,12.70
2022-10-21T01:32:59.202Z,13.50
2022-10-21T01:35:39.482Z,13.10
2022-10-21T01:38:19.360Z,13.90
2022-10-21T01:40:57.772Z,13.90
2022-10-21T01:43:42.189Z,13.20
2022-10-21T01:46:17.988Z,13.90
2022-10-21T01:48:56.823Z,12.80
2022-10-21T01:51:29.686Z,12.90
2022-10-21T01:54:06.824Z,12.60
2022-10-21T01:56:40.126Z,13.40
2022-10-21T01:59:15.524Z,13.00
2022-10-21T02:01:50.180Z,12.10
2022-10-21T02:04:24.310Z,13.00
2022-10-21T02:06:56.014Z,12.60
2022-10-21T02:09:28.176Z,14.50
2022-10-21T02:12:03.826Z,13.70
2022-10-21T02:14:38.947Z,13.40
2022-10-21T02:17:15.029Z,13.80
2022-10-21T02:19:47.071Z,13.00
2022-10-21T02:22:22.178Z,12.40
2022-10-21T02:24:58.615Z,12.70
2022-10-21T02:27:30.284Z,13.60
2022-10-21T02:30:03.129Z,14.30
2022-10-21T02:32:40.195Z,14.50
2022-10-21T02:35:25.908Z,13.70
2022-10-21T02:38:05.249Z,12.50
2022-10-21T02:40:46.950Z,13.80
2022-10-21T02:43:22.447Z,12.70
2022-10-21T02:46:00.308Z,13.20
2022-10-21T02:48:35.499Z,13.60
2022-10-21T02:51:10.427Z,13.00
2022-10-21T02:53:42.571Z,12.60
2022-10-21T02:56:14.956Z,13.70
2022-10-21T02:58:46.489Z,13.80
2022-10-21T03:01:21.877Z,12.70
2022-10-21T03:03:53.489Z,12.70
2022-10-21T03:06:25.110Z,13.10
2022-10-21T03:08:56.720Z,12.20
2022-10-21T03:11:31.045Z,13.10
2022-10-21T03:14:02.608Z,13.20
2022-10-21T03:16:34.994Z,13.80
2022-10-21T03:19:06.585Z,13.70
2022-10-21T03:21:39.871Z,13.40
2022-10-21T03:24:19.799Z,14.30
2022-10-21T03:26:57.005Z,14.30
2022-10-21T03:29:28.575Z,14.10
2022-10-21T03:32:02.691Z,13.90
2022-10-21T03:34:34.223Z,14.30
2022-10-21T03:37:06.591Z,14.80
2022-10-21T03:39:38.777Z,15.00
2022-10-21T03:42:12.047Z,14.80
2022-10-21T03:44:43.657Z,15.50
2022-10-21T03:47:15.258Z,15.40
2022-10-21T03:49:46.889Z,14.80
2022-10-21T03:52:20.083Z,14.50
2022-10-21T03:54:51.617Z,14.60
2022-10-21T03:57:23.230Z,14.90
2022-10-21T03:59:54.776Z,15.40
2022-10-21T04:02:27.646Z,14.30
2022-10-21T04:04:59.275Z,14.40
2022-10-21T04:07:30.847Z,14.20
2022-10-21T04:10:02.453Z,14.10
2022-10-21T04:12:34.176Z,14.40
2022-10-21T04:15:07.192Z,14.70
2022-10-21T04:17:38.788Z,15.00
2022-10-21T04:20:18.971Z,14.90
